sensor_id;sensor_type;location;lat;lon;timestamp;P1;durP1;ratioP1;P2;durP2;ratioP2
20480;SDS011;10399;50.754;3.366;2022-10-17T00:00:43;15.45;;;4.82;;
20480;SDS011;10399;50.754;3.366;2022-10-17T00:03:10;8.55;;;4.90;;
20480;SDS011;10399;50.754;3.366;2022-10-17T00:05:38;11.18;;;5.13;;
20480;SDS011;10399;50.754;3.366;2022-10-17T00:08:10;7.13;;;4.80;;
20480;SDS011;10399;50.754;3.366;2022-10-17T00:10:38;12.23;;;4.85;;
20480;SDS011;10399;50.754;3.366;2022-10-17T00:13:06;7.00;;;4.57;;
20480;SDS011;10399;50.754;3.366;2022-10-17T00:15:34;9.00;;;4.72;;
20480;SDS011;10399;50.754;3.366;2022-10-17T00:18:01;7.25;;;4.43;;
20480;SDS011;10399;50.754;3.366;2022-10-17T00:20:29;6.30;;;4.10;;
20480;SDS011;10399;50.754;3.366;2022-10-17T00:22:57;5.75;;;4.25;;
20480;SDS011;10399;50.754;3.366;2022-10-17T00:25:25;10.07;;;4.47;;
20480;SDS011;10399;50.754;3.366;2022-10-17T00:27:52;6.85;;;3.85;;
20480;SDS011;10399;50.754;3.366;2022-10-17T00:30:19;6.93;;;4.90;;
20480;SDS011;10399;50.754;3.366;2022-10-17T00:32:46;5.20;;;4.05;;
20480;SDS011;10399;50.754;3.366;2022-10-17T00:35:13;7.68;;;4.30;;
20480;SDS011;10399;50.754;3.366;2022-10-17T00:37:40;6.88;;;4.13;;
20480;SDS011;10399;50.754;3.366;2022-10-17T00:40:07;8.85;;;4.72;;
20480;SDS011;10399;50.754;3.366;2022-10-17T00:42:34;11.48;;;4.47;;
20480;SDS011;10399;50.754;3.366;2022-10-17T00:45:06;6.22;;;4.25;;
20480;SDS011;10399;50.754;3.366;2022-10-17T00:47:34;10.93;;;4.57;;
20480;SDS011;10399;50.754;3.366;2022-10-17T00:50:03;10.25;;;4.55;;
20480;SDS011;10399;50.754;3.366;2022-10-17T00:52:32;6.85;;;4.35;;
20480;SDS011;10399;50.754;3.366;2022-10-17T00:55:22;7.38;;;4.40;;
20480;SDS011;10399;50.754;3.366;2022-10-17T00:57:51;5.88;;;4.30;;
20480;SDS011;10399;50.754;3.366;2022-10-17T01:00:19;9.43;;;3.75;;
20480;SDS011;10399;50.754;3.366;2022-10-17T01:02:47;8.23;;;4.40;;
20480;SDS011;10399;50.754;3.366;2022-10-17T01:05:14;11.38;;;4.50;;
20480;SDS011;10399;50.754;3.366;2022-10-17T01:07:43;10.35;;;4.40;;
20480;SDS011;10399;50.754;3.366;2022-10-17T01:10:12;8.75;;;4.38;;
20480;SDS011;10399;50.754;3.366;2022-10-17T01:15:28;9.30;;;4.60;;
20480;SDS011;10399;50.754;3.366;2022-10-17T01:18:18;4.90;;;4.00;;
20480;SDS011;10399;50.754;3.366;2022-10-17T01:21:06;7.82;;;4.63;;
20480;SDS011;10399;50.754;3.366;2022-10-17T01:37:25;4.72;;;4.00;;
20480;SDS011;10399;50.754;3.366;2022-10-17T01:42:44;9.45;;;4.93;;
20480;SDS011;10399;50.754;3.366;2022-10-17T01:45:15;6.25;;;4.38;;
20480;SDS011;10399;50.754;3.366;2022-10-17T01:47:52;8.88;;;4.35;;
20480;SDS011;10399;50.754;3.366;2022-10-17T01:50:26;7.45;;;4.68;;
20480;SDS011;10399;50.754;3.366;2022-10-17T01:52:59;10.52;;;5.47;;
20480;SDS011;10399;50.754;3.366;2022-10-17T01:55:34;6.40;;;4.80;;
20480;SDS011;10399;50.754;3.366;2022-10-17T01:58:25;10.95;;;4.82;;
20480;SDS011;10399;50.754;3.366;2022-10-17T02:00:59;8.45;;;4.63;;
20480;SDS011;10399;50.754;3.366;2022-10-17T02:03:30;9.60;;;4.78;;
20480;SDS011;10399;50.754;3.366;2022-10-17T02:05:59;6.60;;;4.45;;
20480;SDS011;10399;50.754;3.366;2022-10-17T02:08:27;9.50;;;4.63;;
20480;SDS011;10399;50.754;3.366;2022-10-17T02:11:06;7.53;;;4.45;;
20480;SDS011;10399;50.754;3.366;2022-10-17T02:25:20;7.50;;;4.60;;
20480;SDS011;10399;50.754;3.366;2022-10-17T02:31:23;6.20;;;4.70;;
20480;SDS011;10399;50.754;3.366;2022-10-17T02:33:57;12.75;;;4.70;;
20480;SDS011;10399;50.754;3.366;2022-10-17T02:36:38;7.28;;;4.93;;
20480;SDS011;10399;50.754;3.366;2022-10-17T02:39:07;7.95;;;5.35;;
20480;SDS011;10399;50.754;3.366;2022-10-17T02:41:51;8.95;;;4.85;;
20480;SDS011;10399;50.754;3.366;2022-10-17T02:44:20;7.22;;;4.68;;
20480;SDS011;10399;50.754;3.366;2022-10-17T02:46:50;10.05;;;4.95;;
20480;SDS011;10399;50.754;3.366;2022-10-17T02:49:33;9.25;;;4.97;;
20480;SDS011;10399;50.754;3.366;2022-10-17T02:59:40;9.85;;;5.20;;
20480;SDS011;10399;50.754;3.366;2022-10-17T03:02:10;12.85;;;5.25;;
20480;SDS011;10399;50.754;3.366;2022-10-17T03:04:38;13.85;;;5.70;;
20480;SDS011;10399;50.754;3.366;2022-10-17T03:07:09;10.27;;;5.70;;
20480;SDS011;10399;50.754;3.366;2022-10-17T03:09:36;12.23;;;5.55;;
20480;SDS011;10399;50.754;3.366;2022-10-17T03:12:03;10.85;;;5.70;;
20480;SDS011;10399;50.754;3.366;2022-10-17T03:14:30;12.77;;;5.95;;
20480;SDS011;10399;50.754;3.366;2022-10-17T03:16:57;10.25;;;5.97;;
20480;SDS011;10399;50.754;3.366;2022-10-17T03:19:24;9.68;;;5.35;;
20480;SDS011;10399;50.754;3.366;2022-10-17T03:21:51;13.18;;;5.88;;
20480;SDS011;10399;50.754;3.366;2022-10-17T03:24:18;10.35;;;5.88;;
20480;SDS011;10399;50.754;3.366;2022-10-17T03:26:45;10.48;;;5.65;;
20480;SDS011;10399;50.754;3.366;2022-10-17T03:29:12;11.30;;;5.43;;
20480;SDS011;10399;50.754;3.366;2022-10-17T03:31:39;13.98;;;5.63;;
20480;SDS011;10399;50.754;3.366;2022-10-17T03:34:06;10.75;;;5.45;;
20480;SDS011;10399;50.754;3.366;2022-10-17T03:36:33;11.43;;;5.90;;
20480;SDS011;10399;50.754;3.366;2022-10-17T03:39:00;11.77;;;6.00;;
20480;SDS011;10399;50.754;3.366;2022-10-17T03:41:27;12.55;;;6.03;;
20480;SDS011;10399;50.754;3.366;2022-10-17T03:43:54;9.05;;;4.85;;
20480;SDS011;10399;50.754;3.366;2022-10-17T03:46:21;8.40;;;5.72;;
20480;SDS011;10399;50.754;3.366;2022-10-17T03:48:47;8.98;;;5.32;;
20480;SDS011;10399;50.754;3.366;2022-10-17T03:51:14;8.80;;;5.00;;
20480;SDS011;10399;50.754;3.366;2022-10-17T03:53:42;9.10;;;5.43;;
20480;SDS011;10399;50.754;3.366;2022-10-17T03:56:12;10.68;;;5.10;;
20480;SDS011;10399;50.754;3.366;2022-10-17T03:58:44;12.27;;;5.32;;
20480;SDS011;10399;50.754;3.366;2022-10-17T04:01:12;9.75;;;5.32;;
20480;SDS011;10399;50.754;3.366;2022-10-17T04:03:41;10.82;;;5.60;;
20480;SDS011;10399;50.754;3.366;2022-10-17T04:06:10;9.02;;;5.05;;
20480;SDS011;10399;50.754;3.366;2022-10-17T04:08:38;10.18;;;5.15;;
20480;SDS011;10399;50.754;3.366;2022-10-17T04:11:06;8.50;;;5.40;;
20480;SDS011;10399;50.754;3.366;2022-10-17T04:13:34;12.70;;;5.85;;
20480;SDS011;10399;50.754;3.366;2022-10-17T04:16:03;7.95;;;5.90;;
20480;SDS011;10399;50.754;3.366;2022-10-17T04:18:36;7.97;;;5.13;;
20480;SDS011;10399;50.754;3.366;2022-10-17T04:21:03;9.55;;;6.25;;
20480;SDS011;10399;50.754;3.366;2022-10-17T04:23:31;6.38;;;5.35;;
20480;SDS011;10399;50.754;3.366;2022-10-17T04:25:59;8.77;;;5.32;;
20480;SDS011;10399;50.754;3.366;2022-10-17T04:28:27;6.97;;;5.32;;
20480;SDS011;10399;50.754;3.366;2022-10-17T04:31:01;9.38;;;5.40;;
20480;SDS011;10399;50.754;3.366;2022-10-17T04:33:30;7.30;;;5.25;;
20480;SDS011;10399;50.754;3.366;2022-10-17T04:36:02;7.13;;;5.60;;
20480;SDS011;10399;50.754;3.366;2022-10-17T04:38:32;7.07;;;4.97;;
20480;SDS011;10399;50.754;3.366;2022-10-17T04:41:00;9.68;;;5.68;;
20480;SDS011;10399;50.754;3.366;2022-10-17T04:43:32;8.27;;;5.65;;
20480;SDS011;10399;50.754;3.366;2022-10-17T04:46:01;10.07;;;5.53;;
20480;SDS011;10399;50.754;3.366;2022-10-17T04:48:30;12.35;;;6.80;;
20480;SDS011;10399;50.754;3.366;2022-10-17T04:51:16;9.77;;;5.40;;
20480;SDS011;10399;50.754;3.366;2022-10-17T04:53:48;10.43;;;6.03;;
20480;SDS011;10399;50.754;3.366;2022-10-17T04:56:16;8.18;;;5.50;;
20480;SDS011;10399;50.754;3.366;2022-10-17T04:58:47;15.80;;;6.00;;
20480;SDS011;10399;50.754;3.366;2022-10-17T05:01:19;16.15;;;6.70;;
20480;SDS011;10399;50.754;3.366;2022-10-17T05:03:48;10.57;;;5.70;;
20480;SDS011;10399;50.754;3.366;2022-10-17T05:06:24;10.75;;;5.15;;
20480;SDS011;10399;50.754;3.366;2022-10-17T05:08:54;8.57;;;5.40;;
20480;SDS011;10399;50.754;3.366;2022-10-17T05:11:23;6.43;;;4.80;;
20480;SDS011;10399;50.754;3.366;2022-10-17T05:13:55;13.57;;;6.07;;
20480;SDS011;10399;50.754;3.366;2022-10-17T05:16:24;10.35;;;5.00;;
20480;SDS011;10399;50.754;3.366;2022-10-17T05:18:53;11.07;;;5.57;;
20480;SDS011;10399;50.754;3.366;2022-10-17T05:21:22;9.20;;;5.50;;
20480;SDS011;10399;50.754;3.366;2022-10-17T05:23:51;9.05;;;5.57;;
20480;SDS011;10399;50.754;3.366;2022-10-17T05:26:18;7.88;;;5.00;;
20480;SDS011;10399;50.754;3.366;2022-10-17T05:28:46;17.10;;;6.38;;
20480;SDS011;10399;50.754;3.366;2022-10-17T05:31:13;9.05;;;5.72;;
20480;SDS011;10399;50.754;3.366;2022-10-17T05:33:40;8.88;;;5.32;;
20480;SDS011;10399;50.754;3.366;2022-10-17T05:36:08;10.38;;;5.65;;
20480;SDS011;10399;50.754;3.366;2022-10-17T05:38:35;10.57;;;6.05;;
20480;SDS011;10399;50.754;3.366;2022-10-17T05:41:03;9.57;;;5.65;;
20480;SDS011;10399;50.754;3.366;2022-10-17T05:43:32;13.02;;;6.28;;
20480;SDS011;10399;50.754;3.366;2022-10-17T05:46:02;14.13;;;6.35;;
20480;SDS011;10399;50.754;3.366;2022-10-17T05:48:30;12.95;;;6.88;;
20480;SDS011;10399;50.754;3.366;2022-10-17T05:50:58;19.83;;;9.35;;
20480;SDS011;10399;50.754;3.366;2022-10-17T05:53:29;11.15;;;6.22;;
20480;SDS011;10399;50.754;3.366;2022-10-17T05:55:58;11.35;;;6.40;;
20480;SDS011;10399;50.754;3.366;2022-10-17T05:58:25;14.82;;;7.95;;
20480;SDS011;10399;50.754;3.366;2022-10-17T06:01:13;27.45;;;7.22;;
20480;SDS011;10399;50.754;3.366;2022-10-17T06:03:40;22.02;;;7.38;;
20480;SDS011;10399;50.754;3.366;2022-10-17T06:06:09;22.30;;;7.32;;
20480;SDS011;10399;50.754;3.366;2022-10-17T06:08:38;10.15;;;6.07;;
20480;SDS011;10399;50.754;3.366;2022-10-17T06:11:05;14.98;;;7.20;;
20480;SDS011;10399;50.754;3.366;2022-10-17T06:13:36;20.40;;;7.25;;
20480;SDS011;10399;50.754;3.366;2022-10-17T06:16:04;16.17;;;7.38;;
20480;SDS011;10399;50.754;3.366;2022-10-17T06:18:31;20.10;;;8.00;;
20480;SDS011;10399;50.754;3.366;2022-10-17T06:21:05;19.10;;;7.78;;
20480;SDS011;10399;50.754;3.366;2022-10-17T06:23:34;19.33;;;8.30;;
20480;SDS011;10399;50.754;3.366;2022-10-17T06:26:02;13.77;;;7.32;;
20480;SDS011;10399;50.754;3.366;2022-10-17T06:28:30;28.15;;;8.68;;
20480;SDS011;10399;50.754;3.366;2022-10-17T06:30:58;20.40;;;8.32;;
20480;SDS011;10399;50.754;3.366;2022-10-17T06:33:24;15.27;;;7.20;;
20480;SDS011;10399;50.754;3.366;2022-10-17T06:35:52;15.07;;;8.10;;
20480;SDS011;10399;50.754;3.366;2022-10-17T06:38:20;16.05;;;8.38;;
20480;SDS011;10399;50.754;3.366;2022-10-17T06:40:47;15.32;;;8.00;;
20480;SDS011;10399;50.754;3.366;2022-10-17T06:43:15;14.50;;;7.43;;
20480;SDS011;10399;50.754;3.366;2022-10-17T06:45:42;15.05;;;8.43;;
20480;SDS011;10399;50.754;3.366;2022-10-17T06:48:13;14.38;;;7.72;;
20480;SDS011;10399;50.754;3.366;2022-10-17T06:50:40;14.63;;;8.13;;
20480;SDS011;10399;50.754;3.366;2022-10-17T06:53:07;11.88;;;7.63;;
20480;SDS011;10399;50.754;3.366;2022-10-17T06:55:34;17.20;;;7.88;;
20480;SDS011;10399;50.754;3.366;2022-10-17T06:58:00;16.25;;;8.38;;
20480;SDS011;10399;50.754;3.366;2022-10-17T07:00:28;19.10;;;9.10;;
20480;SDS011;10399;50.754;3.366;2022-10-17T07:02:54;14.95;;;7.95;;
20480;SDS011;10399;50.754;3.366;2022-10-17T07:05:21;18.70;;;9.90;;
20480;SDS011;10399;50.754;3.366;2022-10-17T07:07:48;15.55;;;8.75;;
20480;SDS011;10399;50.754;3.366;2022-10-17T07:10:17;15.20;;;8.38;;
20480;SDS011;10399;50.754;3.366;2022-10-17T07:12:44;13.65;;;7.47;;
20480;SDS011;10399;50.754;3.366;2022-10-17T07:15:11;16.42;;;8.50;;
20480;SDS011;10399;50.754;3.366;2022-10-17T07:17:38;18.23;;;8.13;;
20480;SDS011;10399;50.754;3.366;2022-10-17T07:20:05;19.77;;;8.60;;
20480;SDS011;10399;50.754;3.366;2022-10-17T07:22:33;16.15;;;8.35;;
20480;SDS011;10399;50.754;3.366;2022-10-17T07:25:00;15.13;;;8.18;;
20480;SDS011;10399;50.754;3.366;2022-10-17T07:27:27;14.95;;;8.30;;
20480;SDS011;10399;50.754;3.366;2022-10-17T07:29:55;16.45;;;7.60;;
20480;SDS011;10399;50.754;3.366;2022-10-17T07:32:22;27.08;;;9.30;;
20480;SDS011;10399;50.754;3.366;2022-10-17T07:34:49;14.02;;;7.75;;
20480;SDS011;10399;50.754;3.366;2022-10-17T07:37:16;16.23;;;8.55;;
20480;SDS011;10399;50.754;3.366;2022-10-17T07:39:43;14.60;;;8.32;;
20480;SDS011;10399;50.754;3.366;2022-10-17T07:42:10;12.38;;;8.05;;
20480;SDS011;10399;50.754;3.366;2022-10-17T07:44:37;17.58;;;7.30;;
20480;SDS011;10399;50.754;3.366;2022-10-17T07:47:04;16.33;;;7.93;;
20480;SDS011;10399;50.754;3.366;2022-10-17T07:49:31;11.90;;;7.30;;
20480;SDS011;10399;50.754;3.366;2022-10-17T07:51:58;12.35;;;7.57;;
20480;SDS011;10399;50.754;3.366;2022-10-17T07:54:25;14.43;;;7.65;;
20480;SDS011;10399;50.754;3.366;2022-10-17T07:56:52;16.85;;;7.50;;
20480;SDS011;10399;50.754;3.366;2022-10-17T07:59:19;11.65;;;7.65;;
20480;SDS011;10399;50.754;3.366;2022-10-17T08:01:46;14.13;;;7.82;;
20480;SDS011;10399;50.754;3.366;2022-10-17T08:04:14;10.90;;;7.28;;
20480;SDS011;10399;50.754;3.366;2022-10-17T08:06:42;11.38;;;7.05;;
20480;SDS011;10399;50.754;3.366;2022-10-17T08:09:09;16.65;;;8.00;;
20480;SDS011;10399;50.754;3.366;2022-10-17T08:11:36;11.43;;;7.35;;
20480;SDS011;10399;50.754;3.366;2022-10-17T08:14:03;12.30;;;7.20;;
20480;SDS011;10399;50.754;3.366;2022-10-17T08:16:30;13.43;;;7.13;;
20480;SDS011;10399;50.754;3.366;2022-10-17T08:18:57;12.68;;;7.20;;
20480;SDS011;10399;50.754;3.366;2022-10-17T08:21:25;11.80;;;6.93;;
20480;SDS011;10399;50.754;3.366;2022-10-17T08:23:52;12.85;;;7.50;;
20480;SDS011;10399;50.754;3.366;2022-10-17T08:26:20;14.32;;;7.47;;
20480;SDS011;10399;50.754;3.366;2022-10-17T08:28:47;15.57;;;6.70;;
20480;SDS011;10399;50.754;3.366;2022-10-17T08:31:16;14.52;;;7.53;;
20480;SDS011;10399;50.754;3.366;2022-10-17T08:33:44;13.77;;;6.70;;
20480;SDS011;10399;50.754;3.366;2022-10-17T08:36:13;12.32;;;7.10;;
20480;SDS011;10399;50.754;3.366;2022-10-17T08:38:42;15.57;;;7.88;;
20480;SDS011;10399;50.754;3.366;2022-10-17T08:46:48;14.00;;;7.75;;
20480;SDS011;10399;50.754;3.366;2022-10-17T08:52:06;10.30;;;7.07;;
20480;SDS011;10399;50.754;3.366;2022-10-17T08:54:41;11.43;;;6.78;;
20480;SDS011;10399;50.754;3.366;2022-10-17T08:57:11;13.13;;;7.22;;
20480;SDS011;10399;50.754;3.366;2022-10-17T08:59:41;9.98;;;6.07;;
20480;SDS011;10399;50.754;3.366;2022-10-17T09:02:21;9.18;;;6.15;;
20480;SDS011;10399;50.754;3.366;2022-10-17T09:10:41;10.15;;;6.20;;
20480;SDS011;10399;50.754;3.366;2022-10-17T09:18:39;10.57;;;5.80;;
20480;SDS011;10399;50.754;3.366;2022-10-17T09:24:19;8.95;;;5.20;;
20480;SDS011;10399;50.754;3.366;2022-10-17T09:27:04;6.75;;;4.40;;
20480;SDS011;10399;50.754;3.366;2022-10-17T09:29:40;9.60;;;4.47;;
20480;SDS011;10399;50.754;3.366;2022-10-17T09:32:13;8.45;;;4.50;;
20480;SDS011;10399;50.754;3.366;2022-10-17T09:34:44;8.93;;;4.80;;
20480;SDS011;10399;50.754;3.366;2022-10-17T09:37:12;8.23;;;4.60;;
20480;SDS011;10399;50.754;3.366;2022-10-17T09:39:41;13.40;;;4.57;;
20480;SDS011;10399;50.754;3.366;2022-10-17T09:42:11;8.75;;;4.38;;
20480;SDS011;10399;50.754;3.366;2022-10-17T09:44:51;10.38;;;4.75;;
20480;SDS011;10399;50.754;3.366;2022-10-17T09:47:44;6.55;;;4.72;;
20480;SDS011;10399;50.754;3.366;2022-10-17T09:50:19;9.48;;;4.78;;
20480;SDS011;10399;50.754;3.366;2022-10-17T09:52:51;6.68;;;4.95;;
20480;SDS011;10399;50.754;3.366;2022-10-17T09:55:41;6.32;;;4.75;;
20480;SDS011;10399;50.754;3.366;2022-10-17T09:58:08;5.50;;;4.50;;
20480;SDS011;10399;50.754;3.366;2022-10-17T10:00:40;7.90;;;4.72;;
20480;SDS011;10399;50.754;3.366;2022-10-17T10:03:17;9.23;;;4.97;;
20480;SDS011;10399;50.754;3.366;2022-10-17T10:08:35;6.85;;;5.30;;
20480;SDS011;10399;50.754;3.366;2022-10-17T10:11:14;6.30;;;4.68;;
20480;SDS011;10399;50.754;3.366;2022-10-17T10:13:43;8.20;;;5.00;;
20480;SDS011;10399;50.754;3.366;2022-10-17T10:16:14;7.90;;;4.80;;
20480;SDS011;10399;50.754;3.366;2022-10-17T10:18:47;11.02;;;5.05;;
20480;SDS011;10399;50.754;3.366;2022-10-17T10:21:20;9.23;;;5.28;;
20480;SDS011;10399;50.754;3.366;2022-10-17T10:26:29;6.53;;;4.78;;
20480;SDS011;10399;50.754;3.366;2022-10-17T10:31:50;7.05;;;4.57;;
20480;SDS011;10399;50.754;3.366;2022-10-17T10:34:20;8.35;;;4.65;;
20480;SDS011;10399;50.754;3.366;2022-10-17T10:37:03;5.22;;;3.70;;
20480;SDS011;10399;50.754;3.366;2022-10-17T10:44:57;5.82;;;3.33;;
20480;SDS011;10399;50.754;3.366;2022-10-17T10:47:28;6.97;;;3.15;;
20480;SDS011;10399;50.754;3.366;2022-10-17T10:50:08;6.13;;;3.05;;
20480;SDS011;10399;50.754;3.366;2022-10-17T10:52:44;6.65;;;3.20;;
20480;SDS011;10399;50.754;3.366;2022-10-17T10:57:59;5.70;;;2.65;;
20480;SDS011;10399;50.754;3.366;2022-10-17T11:00:31;3.97;;;2.60;;
20480;SDS011;10399;50.754;3.366;2022-10-17T11:05:40;4.28;;;2.80;;
20480;SDS011;10399;50.754;3.366;2022-10-17T11:13:57;7.28;;;2.47;;
20480;SDS011;10399;50.754;3.366;2022-10-17T11:16:39;4.40;;;2.60;;
20480;SDS011;10399;50.754;3.366;2022-10-17T11:22:18;4.22;;;2.70;;
20480;SDS011;10399;50.754;3.366;2022-10-17T11:24:59;5.53;;;2.85;;
20480;SDS011;10399;50.754;3.366;2022-10-17T11:27:38;6.60;;;3.58;;
20480;SDS011;10399;50.754;3.366;2022-10-17T11:30:05;6.68;;;2.83;;
20480;SDS011;10399;50.754;3.366;2022-10-17T11:32:42;5.05;;;3.25;;
20480;SDS011;10399;50.754;3.366;2022-10-17T11:35:26;6.32;;;3.80;;
20480;SDS011;10399;50.754;3.366;2022-10-17T11:40:57;5.72;;;3.25;;
20480;SDS011;10399;50.754;3.366;2022-10-17T11:43:32;8.98;;;2.92;;
20480;SDS011;10399;50.754;3.366;2022-10-17T11:46:10;12.88;;;4.10;;
20480;SDS011;10399;50.754;3.366;2022-10-17T11:48:44;5.00;;;2.83;;
20480;SDS011;10399;50.754;3.366;2022-10-17T11:51:14;6.20;;;2.53;;
20480;SDS011;10399;50.754;3.366;2022-10-17T11:54:08;5.13;;;2.75;;
20480;SDS011;10399;50.754;3.366;2022-10-17T12:08:12;6.82;;;1.98;;
20480;SDS011;10399;50.754;3.366;2022-10-17T12:10:53;4.90;;;2.10;;
20480;SDS011;10399;50.754;3.366;2022-10-17T12:15:56;3.63;;;1.52;;
20480;SDS011;10399;50.754;3.366;2022-10-17T12:18:43;3.70;;;1.58;;
20480;SDS011;10399;50.754;3.366;2022-10-17T12:21:12;3.72;;;1.77;;
20480;SDS011;10399;50.754;3.366;2022-10-17T12:23:39;3.05;;;1.50;;
20480;SDS011;10399;50.754;3.366;2022-10-17T12:26:07;3.50;;;2.00;;
20480;SDS011;10399;50.754;3.366;2022-10-17T12:31:04;4.13;;;1.65;;
20480;SDS011;10399;50.754;3.366;2022-10-17T12:33:59;2.13;;;1.38;;
20480;SDS011;10399;50.754;3.366;2022-10-17T12:55:06;7.35;;;2.00;;
20480;SDS011;10399;50.754;3.366;2022-10-17T13:00:15;5.22;;;2.20;;
20480;SDS011;10399;50.754;3.366;2022-10-17T13:02:42;5.20;;;1.92;;
20480;SDS011;10399;50.754;3.366;2022-10-17T13:05:25;6.07;;;2.15;;
20480;SDS011;10399;50.754;3.366;2022-10-17T13:08:01;3.50;;;2.10;;
20480;SDS011;10399;50.754;3.366;2022-10-17T13:10:32;3.15;;;1.98;;
20480;SDS011;10399;50.754;3.366;2022-10-17T13:13:13;6.07;;;2.20;;
20480;SDS011;10399;50.754;3.366;2022-10-17T13:15:45;2.97;;;1.98;;
20480;SDS011;10399;50.754;3.366;2022-10-17T13:18:22;3.38;;;1.80;;
20480;SDS011;10399;50.754;3.366;2022-10-17T13:23:36;7.57;;;1.83;;
20480;SDS011;10399;50.754;3.366;2022-10-17T13:28:38;4.55;;;2.25;;
20480;SDS011;10399;50.754;3.366;2022-10-17T13:31:05;7.40;;;1.98;;
20480;SDS011;10399;50.754;3.366;2022-10-17T13:33:38;4.40;;;1.88;;
20480;SDS011;10399;50.754;3.366;2022-10-17T13:36:06;4.35;;;1.95;;
20480;SDS011;10399;50.754;3.366;2022-10-17T13:38:40;3.78;;;2.05;;
20480;SDS011;10399;50.754;3.366;2022-10-17T13:41:12;4.28;;;2.03;;
20480;SDS011;10399;50.754;3.366;2022-10-17T13:44:00;2.75;;;1.67;;
20480;SDS011;10399;50.754;3.366;2022-10-17T13:46:31;6.28;;;2.00;;
20480;SDS011;10399;50.754;3.366;2022-10-17T13:49:09;6.43;;;2.38;;
20480;SDS011;10399;50.754;3.366;2022-10-17T13:51:43;6.75;;;2.08;;
20480;SDS011;10399;50.754;3.366;2022-10-17T13:56:58;3.80;;;1.70;;
20480;SDS011;10399;50.754;3.366;2022-10-17T13:59:36;4.38;;;1.58;;
20480;SDS011;10399;50.754;3.366;2022-10-17T14:02:08;9.30;;;2.22;;
20480;SDS011;10399;50.754;3.366;2022-10-17T14:04:42;4.80;;;2.13;;
20480;SDS011;10399;50.754;3.366;2022-10-17T14:07:39;7.82;;;2.03;;
20480;SDS011;10399;50.754;3.366;2022-10-17T14:10:31;8.38;;;1.70;;
20480;SDS011;10399;50.754;3.366;2022-10-17T14:13:00;6.03;;;2.00;;
20480;SDS011;10399;50.754;3.366;2022-10-17T14:15:30;6.95;;;2.10;;
20480;SDS011;10399;50.754;3.366;2022-10-17T14:18:03;6.03;;;2.92;;
20480;SDS011;10399;50.754;3.366;2022-10-17T14:20:34;7.45;;;2.92;;
20480;SDS011;10399;50.754;3.366;2022-10-17T14:23:41;9.27;;;3.40;;
20480;SDS011;10399;50.754;3.366;2022-10-17T14:28:39;6.43;;;2.05;;
20480;SDS011;10399;50.754;3.366;2022-10-17T14:31:09;5.07;;;1.77;;
20480;SDS011;10399;50.754;3.366;2022-10-17T14:33:43;8.40;;;2.03;;
20480;SDS011;10399;50.754;3.366;2022-10-17T14:36:16;3.35;;;1.90;;
20480;SDS011;10399;50.754;3.366;2022-10-17T14:38:45;6.63;;;2.20;;
20480;SDS011;10399;50.754;3.366;2022-10-17T14:44:13;3.83;;;1.90;;
20480;SDS011;10399;50.754;3.366;2022-10-17T14:46:49;3.28;;;2.13;;
20480;SDS011;10399;50.754;3.366;2022-10-17T14:49:23;4.55;;;1.80;;
20480;SDS011;10399;50.754;3.366;2022-10-17T14:54:53;4.03;;;2.10;;
20480;SDS011;10399;50.754;3.366;2022-10-17T14:57:26;11.98;;;2.30;;
20480;SDS011;10399;50.754;3.366;2022-10-17T14:59:59;5.35;;;2.40;;
20480;SDS011;10399;50.754;3.366;2022-10-17T15:02:27;8.90;;;2.15;;
20480;SDS011;10399;50.754;3.366;2022-10-17T15:04:55;10.10;;;2.50;;
20480;SDS011;10399;50.754;3.366;2022-10-17T15:07:22;3.55;;;2.00;;
20480;SDS011;10399;50.754;3.366;2022-10-17T15:09:50;5.22;;;2.20;;
20480;SDS011;10399;50.754;3.366;2022-10-17T15:12:19;3.65;;;2.30;;
20480;SDS011;10399;50.754;3.366;2022-10-17T15:14:48;3.28;;;1.90;;
20480;SDS011;10399;50.754;3.366;2022-10-17T15:17:28;4.43;;;2.10;;
20480;SDS011;10399;50.754;3.366;2022-10-17T15:19:56;4.47;;;1.90;;
20480;SDS011;10399;50.754;3.366;2022-10-17T15:22:24;7.63;;;3.10;;
20480;SDS011;10399;50.754;3.366;2022-10-17T15:24:52;10.27;;;4.45;;
20480;SDS011;10399;50.754;3.366;2022-10-17T15:27:20;4.85;;;2.78;;
20480;SDS011;10399;50.754;3.366;2022-10-17T15:29:49;7.32;;;3.00;;
20480;SDS011;10399;50.754;3.366;2022-10-17T15:32:16;5.00;;;2.58;;
20480;SDS011;10399;50.754;3.366;2022-10-17T15:34:43;7.90;;;2.72;;
20480;SDS011;10399;50.754;3.366;2022-10-17T15:37:29;6.05;;;2.50;;
20480;SDS011;10399;50.754;3.366;2022-10-17T15:39:59;12.32;;;2.35;;
20480;SDS011;10399;50.754;3.366;2022-10-17T15:42:27;4.25;;;2.08;;
20480;SDS011;10399;50.754;3.366;2022-10-17T15:44:56;4.10;;;1.98;;
20480;SDS011;10399;50.754;3.366;2022-10-17T15:47:24;4.18;;;2.15;;
20480;SDS011;10399;50.754;3.366;2022-10-17T15:49:55;3.50;;;2.20;;
20480;SDS011;10399;50.754;3.366;2022-10-17T15:52:22;6.60;;;2.20;;
20480;SDS011;10399;50.754;3.366;2022-10-17T15:54:50;4.55;;;1.98;;
20480;SDS011;10399;50.754;3.366;2022-10-17T15:57:22;5.22;;;2.50;;
20480;SDS011;10399;50.754;3.366;2022-10-17T15:59:55;7.97;;;2.60;;
20480;SDS011;10399;50.754;3.366;2022-10-17T16:02:24;6.28;;;2.67;;
20480;SDS011;10399;50.754;3.366;2022-10-17T16:04:52;5.90;;;2.78;;
20480;SDS011;10399;50.754;3.366;2022-10-17T16:07:19;6.30;;;2.55;;
20480;SDS011;10399;50.754;3.366;2022-10-17T16:09:46;8.55;;;2.33;;
20480;SDS011;10399;50.754;3.366;2022-10-17T16:12:18;4.18;;;2.38;;
20480;SDS011;10399;50.754;3.366;2022-10-17T16:14:53;5.60;;;2.55;;
20480;SDS011;10399;50.754;3.366;2022-10-17T16:17:20;9.63;;;2.70;;
20480;SDS011;10399;50.754;3.366;2022-10-17T16:19:48;10.93;;;2.83;;
20480;SDS011;10399;50.754;3.366;2022-10-17T16:24:58;5.68;;;2.70;;
20480;SDS011;10399;50.754;3.366;2022-10-17T16:27:33;8.00;;;3.00;;
20480;SDS011;10399;50.754;3.366;2022-10-17T16:30:01;4.75;;;2.80;;
20480;SDS011;10399;50.754;3.366;2022-10-17T16:32:32;8.38;;;4.50;;
20480;SDS011;10399;50.754;3.366;2022-10-17T16:34:59;8.18;;;4.78;;
20480;SDS011;10399;50.754;3.366;2022-10-17T16:37:26;6.60;;;3.88;;
20480;SDS011;10399;50.754;3.366;2022-10-17T16:39:53;8.40;;;4.25;;
20480;SDS011;10399;50.754;3.366;2022-10-17T16:42:20;16.83;;;4.25;;
20480;SDS011;10399;50.754;3.366;2022-10-17T16:44:48;9.43;;;4.53;;
20480;SDS011;10399;50.754;3.366;2022-10-17T16:47:15;9.18;;;5.10;;
20480;SDS011;10399;50.754;3.366;2022-10-17T16:49:43;11.60;;;5.55;;
20480;SDS011;10399;50.754;3.366;2022-10-17T16:52:10;9.70;;;4.82;;
20480;SDS011;10399;50.754;3.366;2022-10-17T16:54:38;7.88;;;4.40;;
20480;SDS011;10399;50.754;3.366;2022-10-17T16:57:05;7.70;;;4.20;;
20480;SDS011;10399;50.754;3.366;2022-10-17T16:59:32;6.28;;;3.58;;
20480;SDS011;10399;50.754;3.366;2022-10-17T17:02:00;13.02;;;4.78;;
20480;SDS011;10399;50.754;3.366;2022-10-17T17:04:27;11.18;;;4.15;;
20480;SDS011;10399;50.754;3.366;2022-10-17T17:06:55;8.23;;;5.45;;
20480;SDS011;10399;50.754;3.366;2022-10-17T17:09:22;12.65;;;4.45;;
20480;SDS011;10399;50.754;3.366;2022-10-17T17:11:49;11.95;;;4.18;;
20480;SDS011;10399;50.754;3.366;2022-10-17T17:14:16;8.70;;;4.38;;
20480;SDS011;10399;50.754;3.366;2022-10-17T17:16:43;7.78;;;4.07;;
20480;SDS011;10399;50.754;3.366;2022-10-17T17:19:11;11.02;;;4.63;;
20480;SDS011;10399;50.754;3.366;2022-10-17T17:21:39;9.52;;;4.78;;
20480;SDS011;10399;50.754;3.366;2022-10-17T17:24:13;9.45;;;5.25;;
20480;SDS011;10399;50.754;3.366;2022-10-17T17:26:40;9.90;;;6.68;;
20480;SDS011;10399;50.754;3.366;2022-10-17T17:29:07;9.68;;;7.57;;
20480;SDS011;10399;50.754;3.366;2022-10-17T17:31:36;17.58;;;9.45;;
20480;SDS011;10399;50.754;3.366;2022-10-17T17:34:04;15.30;;;9.20;;
20480;SDS011;10399;50.754;3.366;2022-10-17T17:36:33;20.48;;;10.18;;